createdAt,value
2022-10-04T00:02:54.666Z,101131.69
2022-10-04T00:07:54.089Z,101131.38
2022-10-04T00:12:52.115Z,101142.00
2022-10-04T00:18:04.747Z,101144.47
2022-10-04T00:23:16.051Z,101139.16
2022-10-04T00:28:26.825Z,101135.25
2022-10-04T00:33:41.656Z,101131.94
2022-10-04T00:38:47.644Z,101127.09
2022-10-04T00:43:47.078Z,101128.31
2022-10-04T00:48:46.482Z,101128.69
2022-10-04T00:53:56.655Z,101138.13
2022-10-04T00:59:17.410Z,101125.09
2022-10-04T01:04:24.059Z,101126.47
2022-10-04T01:09:21.512Z,101126.66
2022-10-04T01:14:20.284Z,101127.66
2022-10-04T01:19:28.465Z,101133.97
2022-10-04T01:24:35.122Z,101133.84
2022-10-04T01:29:32.077Z,101127.53
2022-10-04T01:34:30.009Z,101126.25
2022-10-04T01:39:28.275Z,101117.44
2022-10-04T01:44:28.347Z,101132.88
2022-10-04T01:49:27.433Z,101136.72
2022-10-04T01:54:30.805Z,101140.81
2022-10-04T01:59:31.701Z,101142.41
2022-10-04T02:04:30.538Z,101147.41
2022-10-04T02:09:29.362Z,101153.03
2022-10-04T02:14:32.511Z,101149.41
2022-10-04T02:19:33.051Z,101149.09
2022-10-04T02:24:31.941Z,101145.84
2022-10-04T02:29:29.470Z,101154.81
2022-10-04T02:34:26.098Z,101166.22
2022-10-04T02:39:24.736Z,101173.31
2022-10-04T02:44:24.033Z,101170.50
2022-10-04T02:49:27.248Z,101179.97
2022-10-04T02:54:28.782Z,101193.13
2022-10-04T02:59:25.432Z,101188.75
2022-10-04T03:04:25.182Z,101182.22
2022-10-04T03:09:27.412Z,101203.47
2022-10-04T03:14:28.585Z,101204.16
2022-10-04T03:19:27.725Z,101206.44
2022-10-04T03:24:27.888Z,101219.09
2022-10-04T03:29:27.180Z,101217.63
2022-10-04T03:34:29.399Z,101221.09
2022-10-04T03:39:28.565Z,101225.94
2022-10-04T03:44:26.364Z,101234.59
2022-10-04T03:49:32.578Z,101235.75
2022-10-04T03:54:31.018Z,101235.13
2022-10-04T03:59:28.077Z,101240.78
2022-10-04T04:04:30.514Z,101231.66
2022-10-04T04:09:36.031Z,101244.63
2022-10-04T04:14:34.430Z,101252.53
2022-10-04T04:19:31.227Z,101253.22
2022-10-04T04:24:31.489Z,101259.41
2022-10-04T04:29:32.069Z,101252.22
2022-10-04T04:34:30.592Z,101253.38
2022-10-04T04:39:40.419Z,101259.06
2022-10-04T04:44:39.160Z,101272.72
2022-10-04T04:49:39.311Z,101275.34
2022-10-04T04:54:36.073Z,101283.25
2022-10-04T05:05:09.857Z,101303.78
2022-10-04T05:10:19.480Z,101311.59
2022-10-04T05:15:16.253Z,101326.41
2022-10-04T05:20:14.662Z,101334.66
2022-10-04T05:25:15.261Z,101346.19
2022-10-04T05:30:18.238Z,101351.69
2022-10-04T05:35:16.705Z,101359.34
2022-10-04T05:40:23.550Z,101363.56
2022-10-04T05:45:22.679Z,101363.94
2022-10-04T05:50:22.585Z,101366.63
2022-10-04T05:55:28.561Z,101368.25
2022-10-04T06:00:34.525Z,101366.06
2022-10-04T06:05:41.372Z,101381.56
2022-10-04T06:10:49.547Z,101390.59
2022-10-04T06:15:56.436Z,101400.84
2022-10-04T06:21:09.384Z,101403.88
2022-10-04T06:26:10.345Z,101412.72
2022-10-04T06:31:30.861Z,101421.81
2022-10-04T06:36:45.127Z,101437.31
2022-10-04T06:41:59.602Z,101436.66
2022-10-04T06:47:02.815Z,101431.16
2022-10-04T06:52:17.581Z,101448.97
2022-10-04T06:57:55.093Z,101449.78
2022-10-04T07:03:21.183Z,101459.03
2022-10-04T07:08:42.207Z,101458.97
2022-10-04T07:14:39.252Z,101452.88
2022-10-04T07:20:29.496Z,101468.94
2022-10-04T07:43:51.343Z,101485.63
2022-10-04T08:13:46.893Z,101497.22
2022-10-04T08:18:52.618Z,101491.03
2022-10-04T08:23:57.490Z,101500.34
2022-10-04T08:29:18.327Z,101501.44
2022-10-04T08:34:45.749Z,101500.78
2022-10-04T08:39:57.855Z,101509.63
2022-10-04T08:45:19.608Z,101506.44
2022-10-04T08:50:35.246Z,101510.91
2022-10-04T08:55:49.631Z,101505.81
2022-10-04T09:01:04.312Z,101511.63
2022-10-04T09:06:13.386Z,101507.06
2022-10-04T09:11:26.745Z,101503.47
2022-10-04T09:16:26.930Z,101499.78
2022-10-04T09:21:40.442Z,101502.94
2022-10-04T09:26:43.285Z,101501.66
2022-10-04T09:31:55.018Z,101509.56
2022-10-04T09:37:00.777Z,101517.34
2022-10-04T09:42:12.275Z,101513.28
2022-10-04T09:47:24.102Z,101507.47
2022-10-04T09:52:30.242Z,101512.66
2022-10-04T09:57:31.460Z,101512.81
2022-10-04T10:02:51.171Z,101511.75
2022-10-04T10:07:59.522Z,101496.88
2022-10-04T10:13:37.307Z,101511.28
2022-10-04T10:18:45.728Z,101502.22
2022-10-04T10:24:01.991Z,101492.81
2022-10-04T10:29:25.448Z,101489.03
2022-10-04T10:35:02.534Z,101499.16
2022-10-04T10:40:20.968Z,101503.53
2022-10-04T10:45:32.470Z,101499.78
2022-10-04T10:50:58.159Z,101499.22
2022-10-04T10:56:24.721Z,101498.47
2022-10-04T11:01:46.429Z,101500.78
2022-10-04T11:07:07.253Z,101497.44
2022-10-04T11:12:24.410Z,101501.09
2022-10-04T11:17:35.504Z,101502.09
2022-10-04T11:22:52.243Z,101500.16
2022-10-04T11:27:57.406Z,101505.97
2022-10-04T11:33:07.312Z,101506.06
2022-10-04T11:38:16.764Z,101511.47
2022-10-04T11:43:21.581Z,101510.09
2022-10-04T11:48:29.643Z,101502.00
2022-10-04T11:53:39.201Z,101504.66
2022-10-04T11:58:46.067Z,101517.19
2022-10-04T12:03:53.652Z,101522.47
2022-10-04T12:09:04.227Z,101526.03
2022-10-04T12:14:09.978Z,101521.50
2022-10-04T12:19:26.916Z,101529.56
2022-10-04T12:24:42.773Z,101519.72
2022-10-04T12:30:03.196Z,101521.38
2022-10-04T12:35:06.663Z,101521.03
2022-10-04T12:40:14.945Z,101522.81
2022-10-04T12:45:27.096Z,101522.78
2022-10-04T12:50:34.773Z,101518.06
2022-10-04T12:55:46.682Z,101527.59
2022-10-04T13:00:46.048Z,101526.66
2022-10-04T13:05:51.304Z,101521.88
2022-10-04T13:10:57.471Z,101531.31
2022-10-04T13:21:20.068Z,101524.28
2022-10-04T13:26:31.176Z,101525.25
2022-10-04T13:31:33.997Z,101500.91
2022-10-04T13:36:45.245Z,101518.41
2022-10-04T13:41:48.499Z,101524.78
2022-10-04T13:46:56.846Z,101526.22
2022-10-04T13:52:23.405Z,101533.75
2022-10-04T13:57:23.550Z,101531.97
2022-10-04T14:02:42.628Z,101536.84
2022-10-04T14:08:00.216Z,101531.34
2022-10-04T14:13:27.415Z,101534.19
2022-10-04T14:18:43.261Z,101543.78
2022-10-04T14:24:09.734Z,101533.41
2022-10-04T14:29:19.724Z,101533.75
2022-10-04T14:34:36.558Z,101541.28
2022-10-04T14:39:41.364Z,101543.19
2022-10-04T14:44:56.451Z,101547.06
2022-10-04T14:50:02.454Z,101555.63
2022-10-04T14:55:10.147Z,101560.34
2022-10-04T15:00:10.892Z,101569.72
2022-10-04T15:05:22.416Z,101571.28
2022-10-04T15:10:21.993Z,101578.97
2022-10-04T15:15:32.974Z,101571.72
2022-10-04T15:20:33.536Z,101581.84
2022-10-04T15:25:49.761Z,101589.78
2022-10-04T15:30:52.808Z,101597.47
2022-10-04T15:35:54.999Z,101607.91
2022-10-04T15:41:01.813Z,101612.28
2022-10-04T15:46:12.154Z,101612.34
2022-10-04T15:51:13.786Z,101616.25
2022-10-04T15:56:19.446Z,101624.94
2022-10-04T16:01:51.496Z,101627.59
2022-10-04T16:06:52.523Z,101631.53
2022-10-04T16:12:03.927Z,101646.97
2022-10-04T16:17:16.928Z,101655.94
2022-10-04T16:22:30.119Z,101649.94
2022-10-04T16:27:58.166Z,101661.81
2022-10-04T16:33:16.023Z,101671.00
2022-10-04T16:38:21.669Z,101681.63
2022-10-04T16:43:25.889Z,101683.81
2022-10-04T16:48:30.065Z,101682.09
2022-10-04T16:53:32.833Z,101693.28
2022-10-04T16:58:51.888Z,101701.44
2022-10-04T17:03:52.942Z,101712.28
2022-10-04T17:09:01.394Z,101711.63
2022-10-04T17:14:01.332Z,101710.69
2022-10-04T17:19:17.695Z,101718.59
2022-10-04T17:24:20.959Z,101738.16
2022-10-04T17:29:32.308Z,101738.31
2022-10-04T17:34:36.075Z,101745.25
2022-10-04T17:39:41.156Z,101755.44
2022-10-04T17:44:56.757Z,101760.25
2022-10-04T17:50:18.238Z,101776.94
2022-10-04T17:55:18.247Z,101783.53
2022-10-04T18:00:16.937Z,101767.63
2022-10-04T18:05:17.249Z,101787.25
2022-10-04T18:10:23.753Z,101791.56
2022-10-04T18:15:25.385Z,101792.84
2022-10-04T18:20:32.029Z,101797.66
2022-10-04T18:25:30.126Z,101795.16
2022-10-04T18:30:29.641Z,101785.97
2022-10-04T18:35:28.097Z,101801.16
2022-10-04T18:40:26.117Z,101806.78
2022-10-04T18:45:25.039Z,101811.44
2022-10-04T18:50:43.105Z,101816.09
2022-10-04T18:55:46.371Z,101824.28
2022-10-04T19:01:16.779Z,101828.53
2022-10-04T19:06:16.278Z,101831.63
2022-10-04T19:11:15.952Z,101831.38
2022-10-04T19:16:15.516Z,101832.72
2022-10-04T19:21:17.684Z,101850.94
2022-10-04T19:26:31.707Z,101842.09
2022-10-04T19:31:33.284Z,101847.41
2022-10-04T19:36:36.099Z,101854.06
2022-10-04T19:41:43.018Z,101843.09
2022-10-04T19:46:42.269Z,101859.38
2022-10-04T19:51:43.697Z,101855.38
2022-10-04T19:56:43.818Z,101869.97
2022-10-04T20:01:40.787Z,101874.75
2022-10-04T20:06:37.805Z,101886.66
2022-10-04T20:11:47.873Z,101899.47
2022-10-04T20:17:02.776Z,101901.44
2022-10-04T20:22:18.048Z,101908.56
2022-10-04T20:27:46.664Z,101910.78
2022-10-04T20:32:56.722Z,101909.66
2022-10-04T20:38:31.242Z,101911.59
2022-10-04T20:43:28.227Z,101909.59
2022-10-04T20:48:26.395Z,101918.06
2022-10-04T20:53:23.927Z,101925.25
2022-10-04T20:58:31.555Z,101926.47
2022-10-04T21:03:31.966Z,101926.50
2022-10-04T21:08:28.905Z,101935.13
2022-10-04T21:13:56.405Z,101948.56
2022-10-04T21:18:56.538Z,101940.56
2022-10-04T21:23:53.207Z,101951.78
2022-10-04T21:28:52.474Z,101952.47
2022-10-04T21:33:49.029Z,101953.84
2022-10-04T21:38:46.295Z,101969.25
2022-10-04T21:43:42.930Z,101959.09
2022-10-04T21:48:39.401Z,101972.41
2022-10-04T21:53:36.216Z,101986.66
2022-10-04T21:58:33.408Z,101980.59
2022-10-04T22:03:29.964Z,101988.31
2022-10-04T22:08:26.476Z,102001.63
2022-10-04T22:13:23.302Z,102007.50
2022-10-04T22:18:22.639Z,102003.97
2022-10-04T22:23:20.119Z,102010.97
2022-10-04T22:28:19.179Z,102011.00
2022-10-04T22:33:24.351Z,102017.34
2022-10-04T22:38:21.058Z,102017.63
2022-10-04T22:43:21.710Z,102023.31
2022-10-04T22:48:18.247Z,102028.75
2022-10-04T22:53:21.627Z,102028.94
2022-10-04T22:58:20.329Z,102032.44
2022-10-04T23:03:24.685Z,102037.56
2022-10-04T23:08:21.982Z,102026.63
2022-10-04T23:13:24.794Z,102035.69
2022-10-04T23:18:23.925Z,102043.72
2022-10-04T23:23:20.929Z,102042.22
2022-10-04T23:28:19.222Z,102039.84
2022-10-04T23:33:20.129Z,102050.59
2022-10-04T23:38:18.476Z,102056.97
2022-10-04T23:43:17.859Z,102063.31
2022-10-04T23:48:20.461Z,102057.75
2022-10-04T23:53:22.948Z,102072.63
2022-10-04T23:58:32.762Z,102060.88
